sensor_id;sensor_type;location;lat;lon;timestamp;P1;durP1;ratioP1;P2;durP2;ratioP2
52104;SDS011;38103;42.776;23.112;2023-07-31T00:00:22;13.27;;;6.20;;
52104;SDS011;38103;42.776;23.112;2023-07-31T00:02:47;10.88;;;5.60;;
52104;SDS011;38103;42.776;23.112;2023-07-31T00:05:13;11.55;;;5.80;;
52104;SDS011;38103;42.776;23.112;2023-07-31T00:07:38;10.77;;;6.10;;
52104;SDS011;38103;42.776;23.112;2023-07-31T00:10:03;11.95;;;6.50;;
52104;SDS011;38103;42.776;23.112;2023-07-31T00:12:29;11.80;;;6.88;;
52104;SDS011;38103;42.776;23.112;2023-07-31T00:14:54;11.60;;;6.75;;
52104;SDS011;38103;42.776;23.112;2023-07-31T00:17:20;12.52;;;7.22;;
52104;SDS011;38103;42.776;23.112;2023-07-31T00:19:45;12.90;;;7.75;;
52104;SDS011;38103;42.776;23.112;2023-07-31T00:22:15;13.88;;;8.25;;
52104;SDS011;38103;42.776;23.112;2023-07-31T00:24:41;13.20;;;8.80;;
52104;SDS011;38103;42.776;23.112;2023-07-31T00:27:06;14.73;;;9.48;;
52104;SDS011;38103;42.776;23.112;2023-07-31T00:29:31;15.60;;;10.60;;
52104;SDS011;38103;42.776;23.112;2023-07-31T00:31:57;14.68;;;10.15;;
52104;SDS011;38103;42.776;23.112;2023-07-31T00:34:22;15.75;;;10.77;;
52104;SDS011;38103;42.776;23.112;2023-07-31T00:36:47;15.93;;;10.70;;
52104;SDS011;38103;42.776;23.112;2023-07-31T00:39:13;15.70;;;11.35;;
52104;SDS011;38103;42.776;23.112;2023-07-31T00:41:38;17.95;;;12.20;;
52104;SDS011;38103;42.776;23.112;2023-07-31T00:44:04;18.17;;;13.00;;
52104;SDS011;38103;42.776;23.112;2023-07-31T00:46:29;21.90;;;14.18;;
52104;SDS011;38103;42.776;23.112;2023-07-31T00:48:54;19.88;;;14.48;;
52104;SDS011;38103;42.776;23.112;2023-07-31T00:51:20;19.48;;;14.70;;
52104;SDS011;38103;42.776;23.112;2023-07-31T00:53:46;20.33;;;15.63;;
52104;SDS011;38103;42.776;23.112;2023-07-31T00:56:12;20.02;;;15.73;;
52104;SDS011;38103;42.776;23.112;2023-07-31T00:58:38;22.00;;;17.40;;
52104;SDS011;38103;42.776;23.112;2023-07-31T01:01:04;21.83;;;16.10;;
52104;SDS011;38103;42.776;23.112;2023-07-31T01:03:29;21.42;;;16.40;;
52104;SDS011;38103;42.776;23.112;2023-07-31T01:08:56;22.55;;;16.63;;
52104;SDS011;38103;42.776;23.112;2023-07-31T01:11:46;21.85;;;16.80;;
52104;SDS011;38103;42.776;23.112;2023-07-31T01:14:16;20.40;;;15.98;;
52104;SDS011;38103;42.776;23.112;2023-07-31T01:16:41;20.85;;;16.25;;
52104;SDS011;38103;42.776;23.112;2023-07-31T01:19:07;22.00;;;16.27;;
52104;SDS011;38103;42.776;23.112;2023-07-31T01:26:59;24.40;;;18.88;;
52104;SDS011;38103;42.776;23.112;2023-07-31T01:32:02;25.60;;;19.90;;
52104;SDS011;38103;42.776;23.112;2023-07-31T01:34:29;23.67;;;19.73;;
52104;SDS011;38103;42.776;23.112;2023-07-31T01:36:56;27.08;;;20.77;;
52104;SDS011;38103;42.776;23.112;2023-07-31T01:39:23;27.48;;;20.88;;
52104;SDS011;38103;42.776;23.112;2023-07-31T01:41:49;29.58;;;22.23;;
52104;SDS011;38103;42.776;23.112;2023-07-31T01:44:14;27.63;;;22.10;;
52104;SDS011;38103;42.776;23.112;2023-07-31T01:46:39;28.85;;;24.05;;
52104;SDS011;38103;42.776;23.112;2023-07-31T01:49:05;27.77;;;23.50;;
52104;SDS011;38103;42.776;23.112;2023-07-31T01:51:31;29.65;;;24.48;;
52104;SDS011;38103;42.776;23.112;2023-07-31T01:53:59;27.15;;;22.80;;
52104;SDS011;38103;42.776;23.112;2023-07-31T01:56:25;29.40;;;23.90;;
52104;SDS011;38103;42.776;23.112;2023-07-31T01:58:50;30.45;;;24.77;;
52104;SDS011;38103;42.776;23.112;2023-07-31T02:01:16;29.83;;;24.50;;
52104;SDS011;38103;42.776;23.112;2023-07-31T02:03:41;29.58;;;25.02;;
52104;SDS011;38103;42.776;23.112;2023-07-31T02:06:07;31.30;;;25.65;;
52104;SDS011;38103;42.776;23.112;2023-07-31T02:08:32;33.20;;;26.52;;
52104;SDS011;38103;42.776;23.112;2023-07-31T02:10:58;29.40;;;25.15;;
52104;SDS011;38103;42.776;23.112;2023-07-31T02:13:23;31.90;;;25.75;;
52104;SDS011;38103;42.776;23.112;2023-07-31T02:15:48;31.92;;;24.67;;
52104;SDS011;38103;42.776;23.112;2023-07-31T02:18:15;28.90;;;25.02;;
52104;SDS011;38103;42.776;23.112;2023-07-31T02:20:40;27.80;;;23.60;;
52104;SDS011;38103;42.776;23.112;2023-07-31T02:23:06;30.52;;;24.92;;
52104;SDS011;38103;42.776;23.112;2023-07-31T02:25:31;30.30;;;25.15;;
52104;SDS011;38103;42.776;23.112;2023-07-31T02:27:57;29.45;;;23.83;;
52104;SDS011;38103;42.776;23.112;2023-07-31T02:30:22;29.40;;;24.33;;
52104;SDS011;38103;42.776;23.112;2023-07-31T02:32:47;29.40;;;24.60;;
52104;SDS011;38103;42.776;23.112;2023-07-31T02:35:13;31.27;;;24.90;;
52104;SDS011;38103;42.776;23.112;2023-07-31T02:37:40;27.58;;;23.27;;
52104;SDS011;38103;42.776;23.112;2023-07-31T02:40:07;29.50;;;24.35;;
52104;SDS011;38103;42.776;23.112;2023-07-31T02:42:32;29.63;;;25.08;;
52104;SDS011;38103;42.776;23.112;2023-07-31T02:44:58;29.50;;;24.85;;
52104;SDS011;38103;42.776;23.112;2023-07-31T02:47:23;30.13;;;25.33;;
52104;SDS011;38103;42.776;23.112;2023-07-31T02:49:48;28.83;;;24.40;;
52104;SDS011;38103;42.776;23.112;2023-07-31T02:52:14;28.52;;;24.80;;
52104;SDS011;38103;42.776;23.112;2023-07-31T02:54:39;30.73;;;24.60;;
52104;SDS011;38103;42.776;23.112;2023-07-31T02:57:05;28.58;;;23.35;;
52104;SDS011;38103;42.776;23.112;2023-07-31T02:59:31;33.55;;;25.55;;
52104;SDS011;38103;42.776;23.112;2023-07-31T03:01:56;33.00;;;25.65;;
52104;SDS011;38103;42.776;23.112;2023-07-31T03:04:22;32.90;;;25.90;;
52104;SDS011;38103;42.776;23.112;2023-07-31T03:06:47;32.90;;;27.02;;
52104;SDS011;38103;42.776;23.112;2023-07-31T03:09:12;33.80;;;25.23;;
52104;SDS011;38103;42.776;23.112;2023-07-31T03:11:38;32.00;;;26.95;;
52104;SDS011;38103;42.776;23.112;2023-07-31T03:14:03;32.42;;;26.50;;
52104;SDS011;38103;42.776;23.112;2023-07-31T03:16:28;32.15;;;26.40;;
52104;SDS011;38103;42.776;23.112;2023-07-31T03:18:54;33.22;;;26.73;;
52104;SDS011;38103;42.776;23.112;2023-07-31T03:21:19;33.78;;;27.13;;
52104;SDS011;38103;42.776;23.112;2023-07-31T03:23:45;35.88;;;26.98;;
52104;SDS011;38103;42.776;23.112;2023-07-31T03:26:10;32.40;;;26.73;;
52104;SDS011;38103;42.776;23.112;2023-07-31T03:28:36;32.47;;;26.75;;
52104;SDS011;38103;42.776;23.112;2023-07-31T03:31:01;33.65;;;27.13;;
52104;SDS011;38103;42.776;23.112;2023-07-31T03:33:27;35.13;;;27.67;;
52104;SDS011;38103;42.776;23.112;2023-07-31T03:35:52;35.33;;;28.40;;
52104;SDS011;38103;42.776;23.112;2023-07-31T03:38:18;38.30;;;28.33;;
52104;SDS011;38103;42.776;23.112;2023-07-31T03:40:44;36.40;;;28.88;;
52104;SDS011;38103;42.776;23.112;2023-07-31T03:43:10;37.03;;;29.83;;
52104;SDS011;38103;42.776;23.112;2023-07-31T03:45:36;37.55;;;30.20;;
52104;SDS011;38103;42.776;23.112;2023-07-31T03:48:01;36.22;;;28.17;;
52104;SDS011;38103;42.776;23.112;2023-07-31T03:50:26;36.67;;;27.83;;
52104;SDS011;38103;42.776;23.112;2023-07-31T03:52:52;33.47;;;27.75;;
52104;SDS011;38103;42.776;23.112;2023-07-31T03:55:17;33.42;;;27.23;;
52104;SDS011;38103;42.776;23.112;2023-07-31T03:57:43;36.47;;;28.67;;
52104;SDS011;38103;42.776;23.112;2023-07-31T04:00:08;34.72;;;27.05;;
52104;SDS011;38103;42.776;23.112;2023-07-31T04:02:34;35.47;;;28.05;;
52104;SDS011;38103;42.776;23.112;2023-07-31T04:05:00;32.78;;;26.27;;
52104;SDS011;38103;42.776;23.112;2023-07-31T04:07:25;34.38;;;28.33;;
52104;SDS011;38103;42.776;23.112;2023-07-31T04:09:50;34.35;;;27.35;;
52104;SDS011;38103;42.776;23.112;2023-07-31T04:12:16;32.55;;;25.90;;
52104;SDS011;38103;42.776;23.112;2023-07-31T04:14:41;34.10;;;27.40;;
52104;SDS011;38103;42.776;23.112;2023-07-31T04:17:06;33.20;;;27.25;;
52104;SDS011;38103;42.776;23.112;2023-07-31T04:19:32;34.40;;;27.10;;
52104;SDS011;38103;42.776;23.112;2023-07-31T04:21:57;32.97;;;26.60;;
52104;SDS011;38103;42.776;23.112;2023-07-31T04:24:23;33.00;;;26.42;;
52104;SDS011;38103;42.776;23.112;2023-07-31T04:26:51;34.92;;;26.45;;
52104;SDS011;38103;42.776;23.112;2023-07-31T04:29:17;32.50;;;26.38;;
52104;SDS011;38103;42.776;23.112;2023-07-31T04:31:42;34.90;;;27.10;;
52104;SDS011;38103;42.776;23.112;2023-07-31T04:34:08;32.90;;;25.55;;
52104;SDS011;38103;42.776;23.112;2023-07-31T04:36:33;31.02;;;25.25;;
52104;SDS011;38103;42.776;23.112;2023-07-31T04:38:59;31.42;;;25.50;;
52104;SDS011;38103;42.776;23.112;2023-07-31T04:41:25;28.55;;;23.88;;
52104;SDS011;38103;42.776;23.112;2023-07-31T04:43:50;28.38;;;23.33;;
52104;SDS011;38103;42.776;23.112;2023-07-31T04:46:15;27.90;;;22.20;;
52104;SDS011;38103;42.776;23.112;2023-07-31T04:48:42;26.55;;;20.77;;
52104;SDS011;38103;42.776;23.112;2023-07-31T04:51:08;24.83;;;19.75;;
52104;SDS011;38103;42.776;23.112;2023-07-31T04:53:34;26.10;;;19.27;;
52104;SDS011;38103;42.776;23.112;2023-07-31T04:55:59;23.23;;;17.67;;
52104;SDS011;38103;42.776;23.112;2023-07-31T04:58:25;27.70;;;19.67;;
52104;SDS011;38103;42.776;23.112;2023-07-31T05:00:50;24.20;;;17.80;;
52104;SDS011;38103;42.776;23.112;2023-07-31T05:03:16;23.13;;;16.70;;
52104;SDS011;38103;42.776;23.112;2023-07-31T05:05:41;23.27;;;17.13;;
52104;SDS011;38103;42.776;23.112;2023-07-31T05:08:06;21.33;;;15.48;;
52104;SDS011;38103;42.776;23.112;2023-07-31T05:10:32;19.83;;;14.90;;
52104;SDS011;38103;42.776;23.112;2023-07-31T05:12:57;19.25;;;14.90;;
52104;SDS011;38103;42.776;23.112;2023-07-31T05:15:22;21.25;;;14.18;;
52104;SDS011;38103;42.776;23.112;2023-07-31T05:17:48;22.67;;;13.48;;
52104;SDS011;38103;42.776;23.112;2023-07-31T05:20:13;17.90;;;12.65;;
52104;SDS011;38103;42.776;23.112;2023-07-31T05:22:40;17.85;;;12.68;;
52104;SDS011;38103;42.776;23.112;2023-07-31T05:25:05;17.00;;;11.90;;
52104;SDS011;38103;42.776;23.112;2023-07-31T05:27:31;18.00;;;12.02;;
52104;SDS011;38103;42.776;23.112;2023-07-31T05:29:57;19.33;;;12.77;;
52104;SDS011;38103;42.776;23.112;2023-07-31T05:32:22;16.55;;;11.00;;
52104;SDS011;38103;42.776;23.112;2023-07-31T05:34:50;18.88;;;10.77;;
52104;SDS011;38103;42.776;23.112;2023-07-31T05:37:17;15.40;;;10.38;;
52104;SDS011;38103;42.776;23.112;2023-07-31T05:39:42;13.80;;;9.27;;
52104;SDS011;38103;42.776;23.112;2023-07-31T05:42:08;16.08;;;9.15;;
52104;SDS011;38103;42.776;23.112;2023-07-31T05:44:33;13.88;;;9.02;;
52104;SDS011;38103;42.776;23.112;2023-07-31T05:46:59;15.77;;;8.02;;
52104;SDS011;38103;42.776;23.112;2023-07-31T05:49:24;14.07;;;8.32;;
52104;SDS011;38103;42.776;23.112;2023-07-31T05:51:49;13.80;;;7.25;;
52104;SDS011;38103;42.776;23.112;2023-07-31T05:54:15;12.10;;;7.43;;
52104;SDS011;38103;42.776;23.112;2023-07-31T05:56:40;13.10;;;7.43;;
52104;SDS011;38103;42.776;23.112;2023-07-31T05:59:06;12.90;;;7.30;;
52104;SDS011;38103;42.776;23.112;2023-07-31T06:01:31;11.23;;;6.60;;
52104;SDS011;38103;42.776;23.112;2023-07-31T06:03:57;12.05;;;6.72;;
52104;SDS011;38103;42.776;23.112;2023-07-31T06:06:22;11.50;;;6.32;;
52104;SDS011;38103;42.776;23.112;2023-07-31T06:08:47;13.63;;;6.13;;
52104;SDS011;38103;42.776;23.112;2023-07-31T06:11:13;12.18;;;6.13;;
52104;SDS011;38103;42.776;23.112;2023-07-31T06:13:38;11.77;;;5.80;;
52104;SDS011;38103;42.776;23.112;2023-07-31T06:16:04;11.48;;;5.88;;
52104;SDS011;38103;42.776;23.112;2023-07-31T06:18:30;10.90;;;5.43;;
52104;SDS011;38103;42.776;23.112;2023-07-31T06:20:56;10.80;;;5.90;;
52104;SDS011;38103;42.776;23.112;2023-07-31T06:23:21;11.75;;;5.40;;
52104;SDS011;38103;42.776;23.112;2023-07-31T06:25:47;11.55;;;5.45;;
52104;SDS011;38103;42.776;23.112;2023-07-31T06:28:12;10.60;;;5.18;;
52104;SDS011;38103;42.776;23.112;2023-07-31T06:30:38;10.55;;;5.00;;
52104;SDS011;38103;42.776;23.112;2023-07-31T06:33:03;13.40;;;5.45;;
52104;SDS011;38103;42.776;23.112;2023-07-31T06:35:28;11.38;;;4.78;;
52104;SDS011;38103;42.776;23.112;2023-07-31T06:37:54;10.20;;;5.00;;
52104;SDS011;38103;42.776;23.112;2023-07-31T06:40:19;10.68;;;4.80;;
52104;SDS011;38103;42.776;23.112;2023-07-31T06:42:44;9.93;;;4.30;;
52104;SDS011;38103;42.776;23.112;2023-07-31T06:45:10;11.57;;;4.25;;
52104;SDS011;38103;42.776;23.112;2023-07-31T06:47:36;12.32;;;4.80;;
52104;SDS011;38103;42.776;23.112;2023-07-31T06:50:01;10.20;;;4.57;;
52104;SDS011;38103;42.776;23.112;2023-07-31T06:52:30;10.07;;;4.00;;
52104;SDS011;38103;42.776;23.112;2023-07-31T06:55:02;9.73;;;4.28;;
52104;SDS011;38103;42.776;23.112;2023-07-31T06:57:29;9.15;;;4.15;;
52104;SDS011;38103;42.776;23.112;2023-07-31T06:59:55;9.73;;;4.18;;
52104;SDS011;38103;42.776;23.112;2023-07-31T07:02:20;9.75;;;4.05;;
52104;SDS011;38103;42.776;23.112;2023-07-31T07:04:46;9.80;;;4.20;;
52104;SDS011;38103;42.776;23.112;2023-07-31T07:07:11;10.55;;;4.30;;
52104;SDS011;38103;42.776;23.112;2023-07-31T07:09:36;10.65;;;4.30;;
52104;SDS011;38103;42.776;23.112;2023-07-31T07:12:02;9.13;;;4.00;;
52104;SDS011;38103;42.776;23.112;2023-07-31T07:14:27;10.05;;;4.07;;
52104;SDS011;38103;42.776;23.112;2023-07-31T07:16:52;9.75;;;4.30;;
52104;SDS011;38103;42.776;23.112;2023-07-31T07:19:18;9.45;;;3.97;;
52104;SDS011;38103;42.776;23.112;2023-07-31T07:21:43;9.07;;;3.60;;
52104;SDS011;38103;42.776;23.112;2023-07-31T07:24:09;10.88;;;3.70;;
52104;SDS011;38103;42.776;23.112;2023-07-31T07:26:34;12.00;;;3.70;;
52104;SDS011;38103;42.776;23.112;2023-07-31T07:28:59;10.45;;;4.15;;
52104;SDS011;38103;42.776;23.112;2023-07-31T07:31:27;8.98;;;3.83;;
52104;SDS011;38103;42.776;23.112;2023-07-31T07:33:52;11.80;;;3.85;;
52104;SDS011;38103;42.776;23.112;2023-07-31T07:36:18;10.27;;;3.80;;
52104;SDS011;38103;42.776;23.112;2023-07-31T07:38:44;10.20;;;3.92;;
52104;SDS011;38103;42.776;23.112;2023-07-31T07:41:09;11.32;;;4.05;;
52104;SDS011;38103;42.776;23.112;2023-07-31T07:43:34;12.73;;;3.90;;
52104;SDS011;38103;42.776;23.112;2023-07-31T07:46:00;9.48;;;3.95;;
52104;SDS011;38103;42.776;23.112;2023-07-31T07:48:25;8.48;;;3.45;;
52104;SDS011;38103;42.776;23.112;2023-07-31T07:50:51;13.73;;;3.40;;
52104;SDS011;38103;42.776;23.112;2023-07-31T07:53:16;8.80;;;3.47;;
52104;SDS011;38103;42.776;23.112;2023-07-31T07:55:41;10.85;;;3.30;;
52104;SDS011;38103;42.776;23.112;2023-07-31T07:58:07;8.65;;;3.30;;
52104;SDS011;38103;42.776;23.112;2023-07-31T08:00:33;9.85;;;3.17;;
52104;SDS011;38103;42.776;23.112;2023-07-31T08:02:58;14.40;;;3.63;;
52104;SDS011;38103;42.776;23.112;2023-07-31T08:05:24;8.43;;;3.30;;
52104;SDS011;38103;42.776;23.112;2023-07-31T08:07:49;8.85;;;3.20;;
52104;SDS011;38103;42.776;23.112;2023-07-31T08:10:15;9.65;;;3.42;;
52104;SDS011;38103;42.776;23.112;2023-07-31T08:12:40;10.75;;;3.70;;
52104;SDS011;38103;42.776;23.112;2023-07-31T08:15:06;8.60;;;3.22;;
52104;SDS011;38103;42.776;23.112;2023-07-31T08:17:31;7.90;;;3.08;;
52104;SDS011;38103;42.776;23.112;2023-07-31T08:19:57;13.48;;;3.95;;
52104;SDS011;38103;42.776;23.112;2023-07-31T08:22:23;11.30;;;3.13;;
52104;SDS011;38103;42.776;23.112;2023-07-31T08:24:49;8.80;;;3.25;;
52104;SDS011;38103;42.776;23.112;2023-07-31T08:27:15;8.90;;;3.20;;
52104;SDS011;38103;42.776;23.112;2023-07-31T08:29:40;8.32;;;3.00;;
52104;SDS011;38103;42.776;23.112;2023-07-31T08:32:06;9.90;;;3.28;;
52104;SDS011;38103;42.776;23.112;2023-07-31T08:34:31;7.65;;;3.00;;
52104;SDS011;38103;42.776;23.112;2023-07-31T08:36:57;8.75;;;3.13;;
52104;SDS011;38103;42.776;23.112;2023-07-31T08:39:22;9.35;;;3.40;;
52104;SDS011;38103;42.776;23.112;2023-07-31T08:41:47;11.40;;;3.70;;
52104;SDS011;38103;42.776;23.112;2023-07-31T08:44:13;10.90;;;3.50;;
52104;SDS011;38103;42.776;23.112;2023-07-31T08:46:40;9.25;;;3.58;;
52104;SDS011;38103;42.776;23.112;2023-07-31T08:49:06;8.43;;;3.30;;
52104;SDS011;38103;42.776;23.112;2023-07-31T08:51:35;8.38;;;3.25;;
52104;SDS011;38103;42.776;23.112;2023-07-31T08:54:01;9.27;;;3.75;;
52104;SDS011;38103;42.776;23.112;2023-07-31T08:56:29;9.07;;;3.38;;
52104;SDS011;38103;42.776;23.112;2023-07-31T08:58:54;11.02;;;3.47;;
52104;SDS011;38103;42.776;23.112;2023-07-31T09:01:20;8.77;;;3.40;;
52104;SDS011;38103;42.776;23.112;2023-07-31T09:03:46;8.95;;;3.05;;
52104;SDS011;38103;42.776;23.112;2023-07-31T09:06:13;8.57;;;3.60;;
52104;SDS011;38103;42.776;23.112;2023-07-31T09:08:41;10.88;;;3.65;;
52104;SDS011;38103;42.776;23.112;2023-07-31T09:11:07;9.23;;;3.50;;
52104;SDS011;38103;42.776;23.112;2023-07-31T09:13:32;9.75;;;3.42;;
52104;SDS011;38103;42.776;23.112;2023-07-31T09:15:58;8.95;;;3.33;;
52104;SDS011;38103;42.776;23.112;2023-07-31T09:18:24;8.32;;;3.30;;
52104;SDS011;38103;42.776;23.112;2023-07-31T09:21:05;8.68;;;3.42;;
52104;SDS011;38103;42.776;23.112;2023-07-31T09:23:40;9.27;;;3.22;;
52104;SDS011;38103;42.776;23.112;2023-07-31T09:26:07;8.00;;;3.00;;
52104;SDS011;38103;42.776;23.112;2023-07-31T09:28:32;8.48;;;3.15;;
52104;SDS011;38103;42.776;23.112;2023-07-31T09:30:58;9.10;;;3.22;;
52104;SDS011;38103;42.776;23.112;2023-07-31T09:33:23;9.20;;;3.33;;
52104;SDS011;38103;42.776;23.112;2023-07-31T09:35:48;9.60;;;3.05;;
52104;SDS011;38103;42.776;23.112;2023-07-31T09:38:14;8.80;;;3.10;;
52104;SDS011;38103;42.776;23.112;2023-07-31T09:40:44;9.65;;;3.20;;
52104;SDS011;38103;42.776;23.112;2023-07-31T09:43:16;10.65;;;3.20;;
52104;SDS011;38103;42.776;23.112;2023-07-31T09:45:46;8.52;;;3.13;;
52104;SDS011;38103;42.776;23.112;2023-07-31T09:48:13;8.77;;;3.20;;
52104;SDS011;38103;42.776;23.112;2023-07-31T09:50:44;9.95;;;3.30;;
52104;SDS011;38103;42.776;23.112;2023-07-31T09:53:10;8.70;;;3.22;;
52104;SDS011;38103;42.776;23.112;2023-07-31T09:55:36;7.90;;;3.10;;
52104;SDS011;38103;42.776;23.112;2023-07-31T09:58:03;8.25;;;2.95;;
52104;SDS011;38103;42.776;23.112;2023-07-31T10:00:30;10.27;;;3.35;;
52104;SDS011;38103;42.776;23.112;2023-07-31T10:02:58;8.85;;;3.20;;
52104;SDS011;38103;42.776;23.112;2023-07-31T10:05:28;8.98;;;3.10;;
52104;SDS011;38103;42.776;23.112;2023-07-31T10:08:16;8.05;;;3.28;;
52104;SDS011;38103;42.776;23.112;2023-07-31T10:10:45;8.10;;;3.08;;
52104;SDS011;38103;42.776;23.112;2023-07-31T10:13:11;8.32;;;2.97;;
52104;SDS011;38103;42.776;23.112;2023-07-31T10:15:38;7.45;;;2.70;;
52104;SDS011;38103;42.776;23.112;2023-07-31T10:18:05;11.35;;;3.00;;
52104;SDS011;38103;42.776;23.112;2023-07-31T10:20:31;7.75;;;3.08;;
52104;SDS011;38103;42.776;23.112;2023-07-31T10:22:57;7.90;;;2.80;;
52104;SDS011;38103;42.776;23.112;2023-07-31T10:25:24;8.90;;;3.20;;
52104;SDS011;38103;42.776;23.112;2023-07-31T10:27:51;8.82;;;2.78;;
52104;SDS011;38103;42.776;23.112;2023-07-31T10:30:19;8.32;;;2.50;;
52104;SDS011;38103;42.776;23.112;2023-07-31T10:32:48;8.10;;;2.83;;
52104;SDS011;38103;42.776;23.112;2023-07-31T10:35:17;8.38;;;3.00;;
52104;SDS011;38103;42.776;23.112;2023-07-31T10:37:43;7.85;;;2.58;;
52104;SDS011;38103;42.776;23.112;2023-07-31T10:42:53;11.10;;;2.80;;
52104;SDS011;38103;42.776;23.112;2023-07-31T10:45:32;8.98;;;2.80;;
52104;SDS011;38103;42.776;23.112;2023-07-31T10:48:12;9.02;;;2.70;;
52104;SDS011;38103;42.776;23.112;2023-07-31T10:50:40;7.15;;;2.60;;
52104;SDS011;38103;42.776;23.112;2023-07-31T10:53:30;7.68;;;2.53;;
52104;SDS011;38103;42.776;23.112;2023-07-31T10:58:26;8.07;;;3.33;;
52104;SDS011;38103;42.776;23.112;2023-07-31T11:00:54;10.15;;;3.80;;
52104;SDS011;38103;42.776;23.112;2023-07-31T11:03:24;12.13;;;4.10;;
52104;SDS011;38103;42.776;23.112;2023-07-31T11:06:03;8.80;;;3.70;;
52104;SDS011;38103;42.776;23.112;2023-07-31T11:08:29;10.10;;;4.15;;
52104;SDS011;38103;42.776;23.112;2023-07-31T11:13:31;9.75;;;4.32;;
52104;SDS011;38103;42.776;23.112;2023-07-31T11:16:07;12.95;;;4.30;;
52104;SDS011;38103;42.776;23.112;2023-07-31T11:18:33;11.35;;;4.75;;
52104;SDS011;38103;42.776;23.112;2023-07-31T11:20:59;10.57;;;4.18;;
52104;SDS011;38103;42.776;23.112;2023-07-31T11:23:25;11.00;;;4.55;;
52104;SDS011;38103;42.776;23.112;2023-07-31T11:25:50;9.85;;;4.47;;
52104;SDS011;38103;42.776;23.112;2023-07-31T11:28:16;11.50;;;4.70;;
52104;SDS011;38103;42.776;23.112;2023-07-31T11:30:44;10.23;;;5.20;;
52104;SDS011;38103;42.776;23.112;2023-07-31T11:33:11;13.02;;;5.47;;
52104;SDS011;38103;42.776;23.112;2023-07-31T11:35:42;11.48;;;5.60;;
52104;SDS011;38103;42.776;23.112;2023-07-31T11:38:08;11.00;;;6.38;;
52104;SDS011;38103;42.776;23.112;2023-07-31T11:40:43;16.02;;;8.30;;
52104;SDS011;38103;42.776;23.112;2023-07-31T11:43:09;14.95;;;8.27;;
52104;SDS011;38103;42.776;23.112;2023-07-31T11:45:38;13.07;;;8.68;;
52104;SDS011;38103;42.776;23.112;2023-07-31T11:48:04;17.25;;;8.43;;
52104;SDS011;38103;42.776;23.112;2023-07-31T11:50:30;13.07;;;7.53;;
52104;SDS011;38103;42.776;23.112;2023-07-31T11:52:59;12.80;;;8.30;;
52104;SDS011;38103;42.776;23.112;2023-07-31T11:55:28;14.70;;;6.93;;
52104;SDS011;38103;42.776;23.112;2023-07-31T11:57:54;19.95;;;9.40;;
52104;SDS011;38103;42.776;23.112;2023-07-31T12:00:22;12.70;;;7.38;;
52104;SDS011;38103;42.776;23.112;2023-07-31T12:02:48;11.02;;;6.18;;
52104;SDS011;38103;42.776;23.112;2023-07-31T12:05:15;11.43;;;6.80;;
52104;SDS011;38103;42.776;23.112;2023-07-31T12:07:44;13.02;;;7.60;;
52104;SDS011;38103;42.776;23.112;2023-07-31T12:10:23;11.68;;;6.88;;
52104;SDS011;38103;42.776;23.112;2023-07-31T12:12:59;11.88;;;6.82;;
52104;SDS011;38103;42.776;23.112;2023-07-31T12:15:29;11.73;;;7.13;;
52104;SDS011;38103;42.776;23.112;2023-07-31T12:18:11;12.63;;;6.68;;
52104;SDS011;38103;42.776;23.112;2023-07-31T12:20:41;12.43;;;6.45;;
52104;SDS011;38103;42.776;23.112;2023-07-31T12:23:18;10.60;;;5.90;;
52104;SDS011;38103;42.776;23.112;2023-07-31T12:25:59;13.63;;;6.78;;
52104;SDS011;38103;42.776;23.112;2023-07-31T12:28:25;11.70;;;6.97;;
52104;SDS011;38103;42.776;23.112;2023-07-31T12:30:50;11.40;;;6.95;;
52104;SDS011;38103;42.776;23.112;2023-07-31T12:33:16;13.98;;;6.55;;
52104;SDS011;38103;42.776;23.112;2023-07-31T12:35:44;12.20;;;6.22;;
52104;SDS011;38103;42.776;23.112;2023-07-31T12:38:11;11.75;;;6.20;;
52104;SDS011;38103;42.776;23.112;2023-07-31T12:40:38;11.85;;;6.68;;
52104;SDS011;38103;42.776;23.112;2023-07-31T12:43:05;11.23;;;6.50;;
52104;SDS011;38103;42.776;23.112;2023-07-31T12:45:32;12.52;;;6.53;;
52104;SDS011;38103;42.776;23.112;2023-07-31T12:47:58;12.68;;;6.18;;
52104;SDS011;38103;42.776;23.112;2023-07-31T12:50:24;10.02;;;5.53;;
52104;SDS011;38103;42.776;23.112;2023-07-31T12:52:50;10.05;;;4.82;;
52104;SDS011;38103;42.776;23.112;2023-07-31T12:55:16;9.45;;;4.40;;
52104;SDS011;38103;42.776;23.112;2023-07-31T12:57:43;11.27;;;4.70;;
52104;SDS011;38103;42.776;23.112;2023-07-31T13:00:08;10.07;;;4.90;;
52104;SDS011;38103;42.776;23.112;2023-07-31T13:02:34;9.35;;;4.40;;
52104;SDS011;38103;42.776;23.112;2023-07-31T13:05:00;12.05;;;4.75;;
52104;SDS011;38103;42.776;23.112;2023-07-31T13:07:26;10.95;;;5.00;;
52104;SDS011;38103;42.776;23.112;2023-07-31T13:09:51;11.85;;;5.68;;
52104;SDS011;38103;42.776;23.112;2023-07-31T13:12:17;10.25;;;4.90;;
52104;SDS011;38103;42.776;23.112;2023-07-31T13:14:42;10.50;;;4.88;;
52104;SDS011;38103;42.776;23.112;2023-07-31T13:17:08;10.20;;;4.57;;
52104;SDS011;38103;42.776;23.112;2023-07-31T13:19:34;9.75;;;4.97;;
52104;SDS011;38103;42.776;23.112;2023-07-31T13:21:59;9.82;;;4.88;;
52104;SDS011;38103;42.776;23.112;2023-07-31T13:24:24;10.23;;;5.60;;
52104;SDS011;38103;42.776;23.112;2023-07-31T13:26:50;11.05;;;5.20;;
52104;SDS011;38103;42.776;23.112;2023-07-31T13:29:15;11.57;;;5.75;;
52104;SDS011;38103;42.776;23.112;2023-07-31T13:31:40;12.23;;;5.20;;
52104;SDS011;38103;42.776;23.112;2023-07-31T13:34:06;13.43;;;4.93;;
52104;SDS011;38103;42.776;23.112;2023-07-31T13:36:31;9.82;;;4.82;;
52104;SDS011;38103;42.776;23.112;2023-07-31T13:38:58;11.55;;;5.72;;
52104;SDS011;38103;42.776;23.112;2023-07-31T13:41:24;10.45;;;5.18;;
52104;SDS011;38103;42.776;23.112;2023-07-31T13:43:50;15.43;;;5.78;;
52104;SDS011;38103;42.776;23.112;2023-07-31T13:46:15;9.90;;;4.30;;
52104;SDS011;38103;42.776;23.112;2023-07-31T13:48:41;14.38;;;8.10;;
52104;SDS011;38103;42.776;23.112;2023-07-31T13:51:06;9.82;;;4.45;;
52104;SDS011;38103;42.776;23.112;2023-07-31T13:53:32;10.40;;;4.63;;
52104;SDS011;38103;42.776;23.112;2023-07-31T13:55:57;14.38;;;8.52;;
52104;SDS011;38103;42.776;23.112;2023-07-31T13:58:22;60.95;;;30.52;;
52104;SDS011;38103;42.776;23.112;2023-07-31T14:00:48;13.65;;;5.25;;
52104;SDS011;38103;42.776;23.112;2023-07-31T14:03:13;15.52;;;4.53;;
52104;SDS011;38103;42.776;23.112;2023-07-31T14:05:39;10.60;;;4.13;;
52104;SDS011;38103;42.776;23.112;2023-07-31T14:08:04;11.43;;;4.05;;
52104;SDS011;38103;42.776;23.112;2023-07-31T14:10:29;11.98;;;4.28;;
52104;SDS011;38103;42.776;23.112;2023-07-31T14:12:55;9.15;;;4.18;;
52104;SDS011;38103;42.776;23.112;2023-07-31T14:15:20;8.77;;;3.97;;
52104;SDS011;38103;42.776;23.112;2023-07-31T14:17:46;10.35;;;4.32;;
52104;SDS011;38103;42.776;23.112;2023-07-31T14:20:11;11.95;;;4.32;;
52104;SDS011;38103;42.776;23.112;2023-07-31T14:22:37;10.65;;;4.43;;
52104;SDS011;38103;42.776;23.112;2023-07-31T14:25:03;9.63;;;4.43;;
52104;SDS011;38103;42.776;23.112;2023-07-31T14:27:29;9.18;;;3.97;;
52104;SDS011;38103;42.776;23.112;2023-07-31T14:29:54;9.80;;;3.90;;
52104;SDS011;38103;42.776;23.112;2023-07-31T14:32:20;8.55;;;3.60;;
52104;SDS011;38103;42.776;23.112;2023-07-31T14:34:46;12.25;;;4.00;;